• Join FlightAware (Why Join?)
  • Login
  • US Flag 
10:37PM EST


 

Airport Tracker/Info


-or-


 

Live Flight TrackerFlight Track Log ✈ FLG4208 ✈ 28-Apr-2013 ✈ KAZO - KDTW

Flight Track Log - Related Links

Times and Time Zones

All times are in EDT time to prevent confusion due to time zone crossing. See the FLG4208 flight status page for this flight to view local times or setup timezone preferences in your user account.

Time Position Orientation Groundspeed Altitude Reporting Facility
EDT Latitude Longitude Course Direction KTS MPH feet Rate Location/Type
11:53AM 42.1792 -85.4628 112° Southeast 202 232 4,700  Level Chicago Center
11:54AM 42.1719 -85.3149 103° East  Level FlightAware Approximate
11:54AM 42.1636 -85.3703 103° East 240 276 7,200  Level Chicago Center
11:55AM 42.1635 -85.2352 106° East  Level FlightAware Approximate
11:55AM 42.1442 -85.2586 103° East 272 313 9,900  Level Chicago Center
11:56AM 42.1469 -85.1573 106° East  Level FlightAware Approximate
11:56AM 42.1253 -85.1489 103° East 294 338 11,000  Level Chicago Center
11:57AM 42.1250 -85.0554 106° East  Level FlightAware Approximate
11:57AM 42.0894 -85.0075 109° East 322 371 11,100  Level Cleveland Center
11:58AM 42.0547 -84.8792 110° East 350 403 11,100 -60 Level Cleveland Center
11:59AM 42.0197 -84.7508 110° East 363 418 11,000 -60 Descending Cleveland Center
12:00PM 41.9847 -84.6228 110° East 363 418 11,000  Level Cleveland Center
12:01PM 41.9556 -84.4981 107° East 357 411 11,000  Level Cleveland Center
12:02PM 41.9236 -84.3983 113° Southeast 351 404 11,000  Level Cleveland Center
12:02PM 41.9203 -84.3731 100° East 352 405 11,000  Level Cleveland Center
12:03PM 41.8939 -84.2850 112° Southeast 350 403 11,000  Level Cleveland Center
12:03PM 41.8806 -84.2425 113° Southeast 352 405 11,000  Level Cleveland Center
12:04PM 41.8603 -84.1661 110° East 344 396 11,000  Level Cleveland Center
12:04PM 41.8450 -84.1206 114° Southeast 352 405 11,000  Level Cleveland Center
12:05PM 41.8372 -84.0336 97° East 348 400 11,000  Level Cleveland Center
12:05PM 41.8486 -83.9953 68° East 337 388 11,000  Level Cleveland Center
12:06PM 41.8986 -83.9308 44° Northeast 365 420 11,000  Level Cleveland Center
12:06PM 41.9203 -83.9014 45° Northeast 309 356 11,000 60 Level Cleveland Center
12:07PM 41.9742 -83.8372 42° Northeast 367 422 11,100  Climbing Cleveland Center
12:07PM 41.9936 -83.8131 43° Northeast 320 368 11,000 -120 Descending Cleveland Center
12:08PM 42.0561 -83.7406 41° Northeast 367 422 11,000  Level Cleveland Center
12:09PM 42.1317 -83.6519 41° Northeast 367 422 11,000  Level Cleveland Center
12:10PM 42.2131 -83.5606 40° Northeast 330 380 11,000 -300 Level Cleveland Center
12:11PM 42.2961 -83.4942 31° Northeast 319 367 10,400 -1,020 Descending Cleveland Center
12:12PM 42.3556 -83.4519 28° Northeast 282 325 9,000 -1,560 Descending Cleveland Center
12:13PM 42.4217 -83.3931 33° Northeast 267 307 7,500 -1,500 Descending Cleveland Center
12:14PM 42.4278 -83.3147 84° East 231 266 6,100 -1,560 Descending Cleveland Center
12:15PM 42.3875 -83.2594 135° Southeast 233 268 4,500 -1,620 Descending Cleveland Center
12:16PM 42.3261 -83.2961 204° Southwest 233 268 2,900 -1,320 Descending Cleveland Center
12:17PM 42.2772 -83.3306 208° Southwest 137 158 1,800 -1,020 Descending Cleveland Center